Time;durP1;ratioP1;P1;durP2;ratioP2;P2;SDS_P1;SDS_P2;PMS_P1;PMS_P2;Temp;Humidity;BMP_temperature;BMP_pressure;BME280_temperature;BME280_humidity;BME280_pressure;Samples;Min_cycle;Max_cycle;Signal;HPM_P1;HPM_P2
2023/02/25 00:01:13;;;;;;;6.47;1.60;;;7.10;99.90;;;;;;5032516;28;20176;-76
2023/02/25 00:03:39;;;;;;;8.45;2.05;;;7.10;99.90;;;;;;5035358;28;20529;-76
2023/02/25 00:06:06;;;;;;;11.60;2.13;;;7.10;99.90;;;;;;5032949;28;20180;-76
2023/02/25 00:08:32;;;;;;;11.57;2.28;;;7.10;99.90;;;;;;5017049;28;20181;-76
2023/02/25 00:11:00;;;;;;;7.72;2.30;;;7.00;99.90;;;;;;5032564;28;20188;-75
2023/02/25 00:13:27;;;;;;;5.88;1.92;;;7.00;99.90;;;;;;5038165;28;20506;-75
2023/02/25 00:15:56;;;;;;;7.88;1.73;;;7.00;99.90;;;;;;5034397;28;20174;-75
2023/02/25 00:18:27;;;;;;;10.07;2.28;;;7.00;99.90;;;;;;5015667;28;20292;-75
2023/02/25 00:20:53;;;;;;;6.55;1.75;;;7.00;99.90;;;;;;5033748;28;20506;-76
2023/02/25 00:23:18;;;;;;;8.07;1.67;;;6.90;99.90;;;;;;5032559;28;20596;-76
2023/02/25 00:25:44;;;;;;;9.27;2.37;;;6.90;99.90;;;;;;5033142;28;20673;-76
2023/02/25 00:28:10;;;;;;;9.18;2.75;;;6.90;99.90;;;;;;5015999;28;20293;-76
2023/02/25 00:30:38;;;;;;;7.40;2.25;;;6.90;99.90;;;;;;5032625;28;20634;-76
2023/02/25 00:33:07;;;;;;;9.68;2.25;;;6.90;99.90;;;;;;5015521;28;20202;-76
2023/02/25 00:35:37;;;;;;;6.63;1.98;;;6.90;99.90;;;;;;5016313;28;20173;-76
2023/02/25 00:38:05;;;;;;;9.68;2.70;;;6.90;99.90;;;;;;5033660;28;20653;-76
2023/02/25 00:40:32;;;;;;;8.07;2.10;;;6.90;99.90;;;;;;5033604;28;20231;-76
2023/02/25 00:42:57;;;;;;;8.52;1.88;;;6.90;99.90;;;;;;5032111;28;20173;-76
2023/02/25 00:45:26;;;;;;;6.30;1.93;;;6.90;99.90;;;;;;5032892;28;20540;-76
2023/02/25 00:47:51;;;;;;;6.65;2.05;;;6.90;99.90;;;;;;5032599;28;20202;-76
2023/02/25 00:50:17;;;;;;;4.43;1.80;;;6.90;99.90;;;;;;5036467;28;20591;-76
2023/02/25 00:52:43;;;;;;;9.13;1.70;;;6.90;99.90;;;;;;5032141;28;20201;-76
2023/02/25 00:55:09;;;;;;;10.93;1.77;;;6.90;99.90;;;;;;5032290;28;20185;-76
2023/02/25 00:57:35;;;;;;;13.90;2.47;;;6.90;99.90;;;;;;5015710;28;20692;-76
2023/02/25 01:00:00;;;;;;;14.13;1.97;;;6.90;99.90;;;;;;5015250;28;21061;-76
2023/02/25 01:02:27;;;;;;;7.45;1.75;;;6.90;99.90;;;;;;5033223;28;20176;-76
2023/02/25 01:04:53;;;;;;;8.70;2.60;;;6.80;99.90;;;;;;5033213;28;20263;-76
2023/02/25 01:07:19;;;;;;;9.10;2.43;;;6.80;99.90;;;;;;5015944;28;20272;-76
2023/02/25 01:09:46;;;;;;;7.82;1.75;;;6.80;99.90;;;;;;5031386;28;20216;-76
2023/02/25 01:12:12;;;;;;;5.90;1.77;;;6.70;99.90;;;;;;5015409;28;20252;-76
2023/02/25 01:14:38;;;;;;;10.17;1.80;;;6.70;99.90;;;;;;5032063;28;20638;-76
2023/02/25 01:17:03;;;;;;;6.90;1.50;;;6.70;99.90;;;;;;5033229;28;20582;-76
2023/02/25 01:19:29;;;;;;;4.50;1.50;;;6.70;99.90;;;;;;5015417;28;20261;-76
2023/02/25 01:21:57;;;;;;;4.90;1.30;;;6.70;99.90;;;;;;5030984;28;20181;-76
2023/02/25 01:24:30;;;;;;;7.53;1.55;;;6.70;99.90;;;;;;5015633;28;20181;-76
2023/02/25 01:26:58;;;;;;;9.15;1.67;;;6.70;99.90;;;;;;5017815;28;20221;-76
2023/02/25 01:29:27;;;;;;;6.70;1.77;;;6.70;99.90;;;;;;5032725;28;20190;-76
2023/02/25 01:31:58;;;;;;;4.68;1.42;;;6.70;99.90;;;;;;5030755;28;20221;-76
2023/02/25 01:34:25;;;;;;;7.85;1.35;;;6.70;99.90;;;;;;5032906;28;20595;-76
2023/02/25 01:36:51;;;;;;;5.93;1.13;;;6.70;99.90;;;;;;5014565;28;20213;-76
2023/02/25 01:39:18;;;;;;;7.20;2.50;;;6.70;99.90;;;;;;5031837;28;20236;-76
2023/02/25 01:41:45;;;;;;;8.45;1.88;;;6.70;99.90;;;;;;5014040;28;20181;-76
2023/02/25 01:44:13;;;;;;;10.10;2.63;;;6.70;99.90;;;;;;5032793;28;20178;-76
2023/02/25 01:46:41;;;;;;;5.82;1.75;;;6.70;99.90;;;;;;5032828;28;20194;-76
2023/02/25 01:49:28;;;;;;;7.63;1.60;;;6.70;99.90;;;;;;5030991;28;20433;-76
2023/02/25 01:52:00;;;;;;;7.15;2.00;;;6.70;99.90;;;;;;5027417;28;20672;-76
2023/02/25 01:54:27;;;;;;;7.25;2.08;;;6.70;99.90;;;;;;5031161;28;20244;-76
2023/02/25 01:56:55;;;;;;;6.88;1.35;;;6.70;99.90;;;;;;5031424;28;20236;-76
2023/02/25 01:59:25;;;;;;;5.30;1.48;;;6.70;99.90;;;;;;5030691;28;20174;-76
2023/02/25 02:01:51;;;;;;;5.20;2.35;;;6.70;99.90;;;;;;5029599;28;20260;-76
2023/02/25 02:04:19;;;;;;;10.50;2.42;;;6.70;99.90;;;;;;5036641;28;20180;-76
2023/02/25 02:06:48;;;;;;;7.80;1.67;;;6.70;99.90;;;;;;5015043;28;20204;-76
2023/02/25 02:09:24;;;;;;;13.77;2.30;;;6.70;99.90;;;;;;5030576;28;20170;-76
2023/02/25 02:11:50;;;;;;;10.32;1.90;;;6.70;99.90;;;;;;5018203;28;20201;-76
2023/02/25 02:14:24;;;;;;;10.37;1.77;;;6.80;99.90;;;;;;5012489;28;20161;-76
2023/02/25 02:17:10;;;;;;;5.78;1.50;;;6.80;99.90;;;;;;5031699;28;20609;-76
2023/02/25 02:19:50;;;;;;;7.63;1.45;;;6.70;99.90;;;;;;5030433;28;20257;-76
2023/02/25 02:22:27;;;;;;;7.78;1.23;;;6.80;99.90;;;;;;5025476;28;20173;-76
2023/02/25 02:25:24;;;;;;;7.85;1.45;;;6.80;99.90;;;;;;5031581;28;20173;-77
2023/02/25 02:27:52;;;;;;;13.63;2.03;;;6.80;99.90;;;;;;4997517;28;20194;-76
2023/02/25 02:30:54;;;;;;;5.15;1.52;;;6.80;99.90;;;;;;5030638;28;20264;-76
2023/02/25 02:33:31;;;;;;;8.63;2.05;;;6.80;99.90;;;;;;5014016;28;20205;-76
2023/02/25 02:36:10;;;;;;;6.03;1.48;;;6.80;99.90;;;;;;5030096;28;20208;-77
2023/02/25 02:38:44;;;;;;;6.78;1.38;;;6.80;99.90;;;;;;5014224;28;20212;-77
2023/02/25 02:41:21;;;;;;;9.60;2.17;;;6.90;99.90;;;;;;5016131;28;20182;-76
2023/02/25 02:44:16;;;;;;;8.15;1.60;;;6.90;99.90;;;;;;5013948;28;20177;-76
2023/02/25 02:46:49;;;;;;;7.40;1.95;;;6.80;99.90;;;;;;5006302;28;20217;-76
2023/02/25 02:49:25;;;;;;;13.15;2.33;;;6.90;99.90;;;;;;5010586;28;20313;-76
2023/02/25 02:52:02;;;;;;;11.43;1.98;;;6.80;99.90;;;;;;4993051;28;20201;-76
2023/02/25 02:54:33;;;;;;;8.15;2.47;;;6.80;99.90;;;;;;5010514;28;20180;-76
2023/02/25 02:57:04;;;;;;;7.05;1.85;;;6.80;99.90;;;;;;5026262;28;20241;-76
2023/02/25 02:59:41;;;;;;;14.65;3.10;;;6.80;99.90;;;;;;5010540;28;20206;-76
2023/02/25 03:02:19;;;;;;;5.88;1.77;;;6.80;99.90;;;;;;5009622;28;20174;-76
2023/02/25 03:04:48;;;;;;;11.80;1.73;;;6.80;99.90;;;;;;5010496;28;20189;-76
2023/02/25 03:07:16;;;;;;;8.77;1.70;;;6.80;99.90;;;;;;5010360;28;20198;-76
2023/02/25 03:09:50;;;;;;;14.70;2.47;;;6.80;99.90;;;;;;4993477;28;20571;-76
2023/02/25 03:12:17;;;;;;;7.03;1.65;;;6.90;99.90;;;;;;4993300;28;20244;-76
2023/02/25 03:14:43;;;;;;;9.93;2.05;;;6.80;99.90;;;;;;5010160;28;20573;-76
2023/02/25 03:17:25;;;;;;;7.22;1.75;;;6.90;99.90;;;;;;4993585;28;20224;-76
2023/02/25 03:20:05;;;;;;;9.35;1.70;;;6.90;99.90;;;;;;5016974;28;20180;-76
2023/02/25 03:22:36;;;;;;;6.60;1.55;;;6.80;99.90;;;;;;5029514;28;20181;-76
2023/02/25 03:25:12;;;;;;;6.35;1.48;;;6.80;99.90;;;;;;5012950;28;20264;-76
2023/02/25 03:27:42;;;;;;;9.45;1.95;;;6.80;99.90;;;;;;4996853;28;20276;-76
2023/02/25 03:30:19;;;;;;;7.65;2.00;;;6.80;99.90;;;;;;5028818;28;20178;-76
2023/02/25 03:32:51;;;;;;;8.32;1.98;;;6.80;99.90;;;;;;5029379;28;20236;-76
2023/02/25 03:35:19;;;;;;;5.80;1.63;;;6.80;99.90;;;;;;5012697;28;20185;-76
2023/02/25 03:37:49;;;;;;;9.10;1.55;;;6.80;99.90;;;;;;5013036;28;20249;-76
2023/02/25 03:40:18;;;;;;;8.75;1.90;;;6.80;99.90;;;;;;5028665;28;20169;-76
2023/02/25 03:42:51;;;;;;;10.40;1.70;;;6.80;99.90;;;;;;5012842;28;20181;-76
2023/02/25 03:45:18;;;;;;;6.13;1.60;;;6.80;99.90;;;;;;5029329;28;20177;-76
2023/02/25 03:47:44;;;;;;;7.28;1.90;;;6.80;99.90;;;;;;5013206;28;20289;-76
2023/02/25 03:50:24;;;;;;;6.25;1.58;;;6.80;99.90;;;;;;5012294;28;20227;-76
2023/02/25 03:52:56;;;;;;;12.27;1.98;;;6.80;99.90;;;;;;5012888;28;20313;-76
2023/02/25 03:55:43;;;;;;;6.47;1.25;;;6.80;99.90;;;;;;5030454;28;20182;-76
2023/02/25 03:58:08;;;;;;;6.87;1.70;;;6.80;99.90;;;;;;5030825;28;20261;-76
2023/02/25 04:00:37;;;;;;;9.27;2.03;;;6.80;99.90;;;;;;5012374;28;20719;-76
2023/02/25 04:03:04;;;;;;;7.78;1.40;;;6.80;99.90;;;;;;5012433;28;20174;-76
2023/02/25 04:05:29;;;;;;;7.35;2.13;;;6.80;99.90;;;;;;5012779;28;20204;-76
2023/02/25 04:07:57;;;;;;;9.27;2.50;;;6.80;99.90;;;;;;5030086;28;20584;-76
2023/02/25 04:10:24;;;;;;;9.38;1.42;;;6.80;99.90;;;;;;5012071;28;20234;-76
2023/02/25 04:12:50;;;;;;;7.57;1.80;;;6.80;99.90;;;;;;5028355;28;20243;-76
2023/02/25 04:15:18;;;;;;;7.38;1.42;;;6.80;99.90;;;;;;5026064;22;20311;-73
2023/02/25 04:17:44;;;;;;;7.45;1.63;;;6.80;99.90;;;;;;4992987;28;20244;-73
2023/02/25 04:20:12;;;;;;;7.80;2.65;;;6.80;99.90;;;;;;5011491;28;20173;-74
2023/02/25 04:22:38;;;;;;;9.25;1.85;;;6.80;99.90;;;;;;4977635;28;20175;-74
2023/02/25 04:25:04;;;;;;;7.07;1.40;;;6.80;99.90;;;;;;4993360;28;20204;-74
2023/02/25 04:27:31;;;;;;;4.40;1.55;;;6.80;99.90;;;;;;5011550;28;20186;-74
2023/02/25 04:29:57;;;;;;;4.65;1.45;;;6.80;99.90;;;;;;4996172;28;20289;-73
2023/02/25 04:32:23;;;;;;;7.78;2.25;;;6.80;99.90;;;;;;5014377;28;20213;-74
2023/02/25 04:34:49;;;;;;;10.18;1.58;;;6.80;99.90;;;;;;5014010;28;20166;-74
2023/02/25 04:37:16;;;;;;;13.73;2.10;;;6.80;99.90;;;;;;4996914;28;20185;-73
2023/02/25 04:39:42;;;;;;;8.00;2.25;;;6.80;99.90;;;;;;4979599;28;20672;-74
2023/02/25 04:42:08;;;;;;;5.32;1.48;;;6.80;99.90;;;;;;4964226;28;20170;-74
2023/02/25 04:44:34;;;;;;;3.55;1.10;;;6.80;99.90;;;;;;4980375;28;20744;-74
2023/02/25 04:47:00;;;;;;;8.13;1.33;;;6.90;99.90;;;;;;4996734;28;20185;-74
2023/02/25 04:49:26;;;;;;;11.57;1.70;;;6.90;99.90;;;;;;5013938;28;20941;-74
2023/02/25 04:51:53;;;;;;;9.80;1.40;;;6.90;99.90;;;;;;4996070;28;20202;-74
2023/02/25 04:54:20;;;;;;;8.15;1.77;;;6.90;99.90;;;;;;4996662;28;20162;-74
2023/02/25 04:56:46;;;;;;;6.40;1.45;;;6.90;99.90;;;;;;5014266;28;20257;-74
2023/02/25 04:59:12;;;;;;;3.38;1.30;;;6.90;99.90;;;;;;4980585;28;20174;-74
2023/02/25 05:01:39;;;;;;;5.75;1.10;;;6.90;99.90;;;;;;4995490;28;20178;-74
2023/02/25 05:04:05;;;;;;;4.90;1.38;;;6.90;99.90;;;;;;4980998;28;20547;-74
2023/02/25 05:06:32;;;;;;;7.47;1.30;;;6.90;99.90;;;;;;5000249;28;20286;-74
2023/02/25 05:08:58;;;;;;;7.50;1.60;;;6.90;99.90;;;;;;4996787;28;20178;-74
2023/02/25 05:11:27;;;;;;;5.33;1.00;;;6.90;99.90;;;;;;4995290;28;20779;-75
2023/02/25 05:13:55;;;;;;;6.43;1.40;;;6.90;99.90;;;;;;5029278;28;20695;-74
2023/02/25 05:16:22;;;;;;;4.10;1.10;;;6.90;99.90;;;;;;5015798;28;20935;-74
2023/02/25 05:18:48;;;;;;;6.85;1.50;;;6.90;99.90;;;;;;5016537;28;20166;-74
2023/02/25 05:21:22;;;;;;;7.13;1.53;;;6.80;99.90;;;;;;4997692;28;20170;-75
2023/02/25 05:23:49;;;;;;;4.88;1.45;;;6.90;99.90;;;;;;4999157;28;20169;-74
2023/02/25 05:26:19;;;;;;;7.78;1.95;;;6.80;99.90;;;;;;5015366;28;20194;-74
2023/02/25 05:28:49;;;;;;;7.07;1.25;;;6.80;99.90;;;;;;5015298;28;20189;-75
2023/02/25 05:31:15;;;;;;;8.15;1.38;;;6.80;99.90;;;;;;5014557;28;20662;-74
2023/02/25 05:33:41;;;;;;;7.10;1.30;;;6.80;99.90;;;;;;5015221;28;20220;-74
2023/02/25 05:36:09;;;;;;;7.70;1.83;;;6.80;99.90;;;;;;5014177;28;20974;-74
2023/02/25 05:38:35;;;;;;;7.10;1.50;;;6.80;99.90;;;;;;5015023;28;20170;-74
2023/02/25 05:41:02;;;;;;;11.90;1.63;;;6.80;99.90;;;;;;5013578;28;20181;-75
2023/02/25 05:43:27;;;;;;;11.48;2.03;;;6.80;99.90;;;;;;5035443;28;20170;-74
2023/02/25 05:45:58;;;;;;;4.70;1.33;;;6.80;99.90;;;;;;5015465;28;20209;-74
2023/02/25 05:48:24;;;;;;;5.22;1.40;;;6.80;99.90;;;;;;5032587;28;20589;-74
2023/02/25 05:50:50;;;;;;;6.00;1.23;;;6.80;99.90;;;;;;5032388;28;20622;-74
2023/02/25 05:53:17;;;;;;;6.60;1.55;;;6.80;99.90;;;;;;4997803;28;20259;-74
2023/02/25 05:55:44;;;;;;;5.47;1.35;;;6.70;99.90;;;;;;5014905;28;20200;-74
2023/02/25 05:58:10;;;;;;;8.45;1.85;;;6.70;99.90;;;;;;4982847;28;20717;-74
2023/02/25 06:00:37;;;;;;;6.45;1.60;;;6.70;99.90;;;;;;5014182;28;20196;-74
2023/02/25 06:03:03;;;;;;;8.60;1.70;;;6.80;99.90;;;;;;5014836;28;20265;-74
2023/02/25 06:05:29;;;;;;;7.55;1.58;;;6.70;99.90;;;;;;5014258;28;20198;-75
2023/02/25 06:07:56;;;;;;;14.55;2.45;;;6.80;99.90;;;;;;4998705;28;20170;-74
2023/02/25 06:10:23;;;;;;;9.13;2.83;;;6.70;99.90;;;;;;5031580;28;20272;-74
2023/02/25 06:12:49;;;;;;;7.22;1.92;;;6.70;99.90;;;;;;5031983;28;20209;-74
2023/02/25 06:15:15;;;;;;;10.20;1.83;;;6.80;99.90;;;;;;4997874;28;20208;-74
2023/02/25 06:17:40;;;;;;;13.20;2.20;;;6.70;99.90;;;;;;5015074;28;20219;-74
2023/02/25 06:20:07;;;;;;;7.97;1.73;;;6.80;99.90;;;;;;5033810;28;20817;-74
2023/02/25 06:22:33;;;;;;;8.10;1.58;;;6.80;99.90;;;;;;5032304;28;20181;-74
2023/02/25 06:24:58;;;;;;;10.10;2.47;;;6.80;99.90;;;;;;5032450;28;20193;-74
2023/02/25 06:27:24;;;;;;;6.87;1.57;;;6.80;99.90;;;;;;5031997;28;20534;-74
2023/02/25 06:29:50;;;;;;;8.60;1.67;;;6.80;99.90;;;;;;5032032;28;20192;-74
2023/02/25 06:32:16;;;;;;;9.10;1.90;;;6.80;99.90;;;;;;5013802;28;20292;-74
2023/02/25 06:34:42;;;;;;;13.38;1.80;;;6.80;99.90;;;;;;5014354;28;20529;-74
2023/02/25 06:37:08;;;;;;;8.75;1.45;;;6.80;99.90;;;;;;4997059;28;20169;-74
2023/02/25 06:39:33;;;;;;;5.20;1.27;;;6.80;99.90;;;;;;5014454;28;20166;-74
2023/02/25 06:41:59;;;;;;;9.30;1.40;;;6.90;99.90;;;;;;5030759;28;20602;-74
2023/02/25 06:44:27;;;;;;;10.10;1.57;;;6.90;99.90;;;;;;5014367;28;20169;-74
2023/02/25 06:46:55;;;;;;;7.75;1.63;;;6.90;99.90;;;;;;5013732;28;20722;-74
2023/02/25 06:49:22;;;;;;;5.13;1.35;;;7.00;99.90;;;;;;5014010;28;20165;-74
2023/02/25 06:51:48;;;;;;;4.50;1.30;;;7.00;99.90;;;;;;4996602;28;20201;-74
2023/02/25 06:54:16;;;;;;;7.05;2.53;;;7.00;99.90;;;;;;5013587;28;20169;-74
2023/02/25 06:56:42;;;;;;;8.82;1.52;;;7.00;99.90;;;;;;5002905;28;20559;-74
2023/02/25 06:59:08;;;;;;;4.70;1.10;;;7.00;99.90;;;;;;5014372;28;20174;-74
2023/02/25 07:01:36;;;;;;;7.05;1.63;;;7.00;99.90;;;;;;5012884;28;20943;-74
2023/02/25 07:04:03;;;;;;;11.60;1.63;;;7.10;99.90;;;;;;5013378;28;20189;-74
2023/02/25 07:06:29;;;;;;;11.15;1.85;;;7.00;99.90;;;;;;5031654;28;20296;-74
2023/02/25 07:08:55;;;;;;;3.67;1.15;;;7.00;99.90;;;;;;5013282;28;20182;-74
2023/02/25 07:11:27;;;;;;;6.35;1.20;;;7.00;99.90;;;;;;5031030;28;20213;-74
2023/02/25 07:13:54;;;;;;;6.60;1.58;;;7.00;99.90;;;;;;5031188;28;20228;-74
2023/02/25 07:16:20;;;;;;;5.78;1.25;;;7.10;99.90;;;;;;5031577;28;20251;-73
2023/02/25 07:18:46;;;;;;;9.57;1.10;;;7.10;99.90;;;;;;4981412;28;20173;-74
2023/02/25 07:21:12;;;;;;;10.68;1.77;;;7.10;99.90;;;;;;5030608;28;20177;-74
2023/02/25 07:23:39;;;;;;;4.00;1.20;;;7.10;99.90;;;;;;5031737;28;20208;-74
2023/02/25 07:26:07;;;;;;;11.75;1.70;;;7.10;99.90;;;;;;5013524;28;20201;-73
2023/02/25 07:28:33;;;;;;;7.38;2.03;;;7.10;99.90;;;;;;5013962;28;20178;-74
2023/02/25 07:31:03;;;;;;;11.00;1.70;;;7.10;99.90;;;;;;5030568;28;20169;-73
2023/02/25 07:33:29;;;;;;;5.32;1.67;;;7.10;99.90;;;;;;5032656;28;20186;-73
2023/02/25 07:35:56;;;;;;;10.90;1.75;;;7.10;99.90;;;;;;5032351;28;20185;-74
2023/02/25 07:38:21;;;;;;;7.40;1.27;;;7.10;99.90;;;;;;5032206;28;20261;-73
2023/02/25 07:40:48;;;;;;;6.13;1.75;;;7.10;99.90;;;;;;4980059;28;20185;-74
2023/02/25 07:43:13;;;;;;;8.87;1.37;;;7.20;99.90;;;;;;5013403;28;20185;-74
2023/02/25 07:45:39;;;;;;;12.20;1.70;;;7.20;99.90;;;;;;5030910;28;20665;-74
2023/02/25 07:48:05;;;;;;;10.18;1.85;;;7.20;99.90;;;;;;5030988;28;20262;-75
2023/02/25 07:50:31;;;;;;;11.00;2.00;;;7.20;99.90;;;;;;5030581;28;20610;-74
2023/02/25 07:52:57;;;;;;;9.95;1.95;;;7.20;99.90;;;;;;5012460;28;20218;-73
2023/02/25 07:55:23;;;;;;;5.40;1.60;;;7.20;99.90;;;;;;4996898;28;20292;-74
2023/02/25 07:57:49;;;;;;;11.93;2.63;;;7.20;99.90;;;;;;5013088;28;20205;-74
2023/02/25 08:00:15;;;;;;;4.97;1.53;;;7.30;99.90;;;;;;5012848;28;20177;-73
2023/02/25 08:02:41;;;;;;;6.85;1.90;;;7.30;99.90;;;;;;5015002;28;20617;-74
2023/02/25 08:05:08;;;;;;;8.20;1.35;;;7.30;99.90;;;;;;5035632;28;20205;-73
2023/02/25 08:07:34;;;;;;;7.75;1.55;;;7.40;99.90;;;;;;5032667;28;20287;-73
2023/02/25 08:10:00;;;;;;;10.15;1.25;;;7.40;99.90;;;;;;5016319;28;20197;-73
2023/02/25 08:12:27;;;;;;;12.70;2.25;;;7.50;99.90;;;;;;5021997;28;20259;-73
2023/02/25 08:14:52;;;;;;;6.23;1.90;;;7.60;99.90;;;;;;5035760;28;20194;-73
2023/02/25 08:17:18;;;;;;;11.07;2.87;;;7.60;99.90;;;;;;5035029;28;20581;-74
2023/02/25 08:19:44;;;;;;;8.13;1.87;;;7.70;99.90;;;;;;5033344;28;20169;-73
2023/02/25 08:22:10;;;;;;;8.90;1.90;;;7.80;99.90;;;;;;5016430;28;20312;-73
2023/02/25 08:24:39;;;;;;;10.63;1.73;;;7.80;99.90;;;;;;5032321;28;20193;-73
2023/02/25 08:27:09;;;;;;;7.88;1.63;;;7.90;99.90;;;;;;5016834;28;20173;-74
2023/02/25 08:29:35;;;;;;;9.75;1.58;;;7.90;99.90;;;;;;5034117;28;20205;-74
2023/02/25 08:32:02;;;;;;;8.75;1.80;;;8.00;99.90;;;;;;5013779;28;20265;-73
2023/02/25 08:34:28;;;;;;;8.93;1.40;;;8.20;99.90;;;;;;5033915;28;20205;-73
2023/02/25 08:36:53;;;;;;;11.30;1.50;;;8.30;99.90;;;;;;5016706;28;20221;-74
2023/02/25 08:39:19;;;;;;;17.27;2.27;;;8.40;99.90;;;;;;5016059;28;20192;-74
2023/02/25 08:41:45;;;;;;;11.47;1.83;;;8.50;99.90;;;;;;5033632;28;20178;-74
2023/02/25 08:44:11;;;;;;;12.53;1.97;;;8.60;99.90;;;;;;4999499;28;20189;-74
2023/02/25 08:46:37;;;;;;;8.90;1.70;;;8.60;99.90;;;;;;4999555;28;20289;-74
2023/02/25 08:49:04;;;;;;;11.57;1.90;;;8.60;99.90;;;;;;5019183;28;20173;-74
2023/02/25 08:51:33;;;;;;;9.88;1.88;;;8.60;99.90;;;;;;5014988;28;20201;-73
2023/02/25 08:54:05;;;;;;;5.35;1.50;;;8.60;99.90;;;;;;5014733;28;20185;-73
2023/02/25 08:56:31;;;;;;;7.82;1.45;;;8.50;99.90;;;;;;5034202;28;20236;-74
2023/02/25 08:58:57;;;;;;;8.13;1.80;;;8.50;99.90;;;;;;5033924;28;20204;-74
2023/02/25 09:01:23;;;;;;;6.33;1.93;;;8.50;99.90;;;;;;5032247;28;20263;-74
2023/02/25 09:03:52;;;;;;;6.03;1.70;;;8.40;99.90;;;;;;5033990;28;20239;-74
2023/02/25 09:06:27;;;;;;;6.60;1.80;;;8.40;99.90;;;;;;5033318;28;20858;-73
2023/02/25 09:08:54;;;;;;;12.57;1.95;;;8.40;99.90;;;;;;4999843;28;20180;-73
2023/02/25 09:11:20;;;;;;;9.52;1.85;;;8.30;99.90;;;;;;5014936;28;20576;-73
2023/02/25 09:13:46;;;;;;;7.43;1.50;;;8.40;99.90;;;;;;5013510;28;20974;-73
2023/02/25 09:16:16;;;;;;;10.52;2.38;;;8.30;99.90;;;;;;5030245;28;20224;-73
2023/02/25 09:18:43;;;;;;;8.35;2.00;;;8.30;99.90;;;;;;5013750;28;20177;-73
2023/02/25 09:21:10;;;;;;;11.30;1.90;;;8.20;99.90;;;;;;5014050;28;20772;-74
2023/02/25 09:23:36;;;;;;;12.75;2.00;;;8.20;99.90;;;;;;5015329;28;20173;-74
2023/02/25 09:26:03;;;;;;;7.05;1.50;;;8.10;99.90;;;;;;5036970;28;20185;-74
2023/02/25 09:28:29;;;;;;;9.07;1.80;;;8.00;99.90;;;;;;5015073;28;20182;-74
2023/02/25 09:30:57;;;;;;;5.82;1.50;;;8.00;99.90;;;;;;5015218;28;20177;-74
2023/02/25 09:33:26;;;;;;;7.50;2.75;;;8.00;99.90;;;;;;5032422;28;20193;-73
2023/02/25 09:35:51;;;;;;;16.27;2.00;;;8.00;99.90;;;;;;5016015;28;20197;-73
2023/02/25 09:38:17;;;;;;;10.00;2.10;;;8.00;99.90;;;;;;5012420;28;20186;-73
2023/02/25 09:40:49;;;;;;;6.97;1.57;;;8.00;99.90;;;;;;5009868;28;20184;-74
2023/02/25 09:43:18;;;;;;;9.13;2.30;;;8.00;99.90;;;;;;4998314;28;20584;-74
2023/02/25 09:45:46;;;;;;;3.58;1.35;;;8.10;99.90;;;;;;5014672;28;20201;-74
2023/02/25 09:48:39;;;;;;;6.70;1.75;;;8.10;99.90;;;;;;5032915;28;20200;-74
2023/02/25 09:51:21;;;;;;;12.10;2.05;;;8.10;99.90;;;;;;5023712;28;20213;-73
2023/02/25 09:54:07;;;;;;;11.55;2.05;;;8.20;99.90;;;;;;4998622;28;20289;-73
2023/02/25 09:56:34;;;;;;;7.57;2.08;;;8.40;99.90;;;;;;5032280;28;20198;-74
2023/02/25 09:59:00;;;;;;;7.75;1.30;;;8.60;99.90;;;;;;5014922;28;20600;-74
2023/02/25 10:01:40;;;;;;;5.78;1.77;;;8.90;99.90;;;;;;5014649;28;20626;-74
2023/02/25 10:04:15;;;;;;;5.50;1.70;;;9.30;99.90;;;;;;4999501;28;20177;-73
2023/02/25 10:06:45;;;;;;;5.57;1.80;;;9.70;99.90;;;;;;5032103;28;20192;-73
2023/02/25 10:09:30;;;;;;;6.53;1.90;;;10.10;99.90;;;;;;5032156;28;20189;-74
2023/02/25 10:12:20;;;;;;;5.75;2.15;;;10.30;99.90;;;;;;5013001;28;20213;-73
2023/02/25 10:15:13;;;;;;;8.65;2.83;;;10.60;99.90;;;;;;5014181;28;20180;-74
2023/02/25 10:18:12;;;;;;;8.27;2.03;;;10.60;99.90;;;;;;5014227;28;20205;-73
2023/02/25 10:20:56;;;;;;;10.30;1.95;;;10.60;99.90;;;;;;5013746;28;20235;-73
2023/02/25 10:23:33;;;;;;;7.60;2.08;;;10.50;99.90;;;;;;5013264;28;20181;-73
2023/02/25 10:26:10;;;;;;;7.13;2.60;;;10.50;99.90;;;;;;5013003;28;20205;-74
2023/02/25 10:28:40;;;;;;;6.47;2.75;;;10.50;99.90;;;;;;5031901;28;20573;-81
2023/02/25 10:31:14;;;;;;;5.70;1.77;;;10.50;99.90;;;;;;5013636;28;20276;-81
2023/02/25 10:33:43;;;;;;;7.75;2.90;;;10.60;99.90;;;;;;4992208;28;20188;-81
2023/02/25 10:36:16;;;;;;;8.65;2.95;;;10.70;99.90;;;;;;5031696;28;20194;-81
2023/02/25 10:38:44;;;;;;;5.75;2.40;;;10.70;99.90;;;;;;5017081;28;20201;-81
2023/02/25 10:41:11;;;;;;;7.28;3.15;;;10.70;99.90;;;;;;5014655;28;20243;-80
2023/02/25 10:43:37;;;;;;;12.27;3.63;;;10.70;99.90;;;;;;4997522;28;20181;-80
2023/02/25 10:46:40;;;;;;;10.30;4.00;;;10.70;99.90;;;;;;4997751;28;20212;-80
2023/02/25 10:49:24;;;;;;;8.90;4.32;;;10.60;99.90;;;;;;5013832;28;20580;-80
2023/02/25 10:52:18;;;;;;;9.95;4.30;;;10.60;99.90;;;;;;5012819;28;20216;-80
2023/02/25 10:54:50;;;;;;;10.35;5.28;;;10.60;99.90;;;;;;5010625;28;20181;-80
2023/02/25 10:57:24;;;;;;;7.22;3.70;;;10.60;99.90;;;;;;5026612;28;20220;-81
2023/02/25 11:00:05;;;;;;;5.97;2.80;;;10.60;99.90;;;;;;5012866;28;20169;-80
2023/02/25 11:02:36;;;;;;;6.15;2.55;;;10.40;99.90;;;;;;5025442;28;20209;-80
2023/02/25 11:05:02;;;;;;;6.63;2.42;;;10.10;99.90;;;;;;5013520;28;20190;-77
2023/02/25 11:07:38;;;;;;;4.33;2.10;;;9.80;99.90;;;;;;5013327;28;20551;-78
2023/02/25 11:10:17;;;;;;;2.67;1.35;;;9.40;99.90;;;;;;5012136;28;20189;-82
2023/02/25 11:12:48;;;;;;;3.45;0.98;;;8.90;99.90;;;;;;5030436;28;20259;-80
2023/02/25 11:15:25;;;;;;;3.60;1.45;;;8.40;99.90;;;;;;5012996;28;20197;-80
2023/02/25 11:17:54;;;;;;;2.70;1.38;;;8.00;99.90;;;;;;5035831;28;20165;-80
2023/02/25 11:20:25;;;;;;;3.50;1.52;;;7.60;99.90;;;;;;5013629;28;20192;-80
2023/02/25 11:22:53;;;;;;;2.40;1.05;;;7.20;99.90;;;;;;5026595;28;20527;-80
2023/02/25 11:25:40;;;;;;;4.07;1.20;;;7.00;99.90;;;;;;5030694;28;20604;-80
2023/02/25 11:28:48;;;;;;;2.78;1.00;;;6.80;99.90;;;;;;5031293;28;20256;-80
2023/02/25 11:31:20;;;;;;;4.00;1.60;;;6.60;99.90;;;;;;4948376;29;20563;-81
2023/02/25 11:34:00;;;;;;;2.22;1.08;;;6.60;99.90;;;;;;4989016;28;20182;-80
2023/02/25 11:36:36;;;;;;;3.00;1.13;;;6.60;99.90;;;;;;4997039;28;20194;-81
2023/02/25 11:39:23;;;;;;;2.47;0.90;;;6.60;99.90;;;;;;5030706;28;20173;-80
2023/02/25 11:41:51;;;;;;;3.20;0.80;;;6.70;99.90;;;;;;5030200;28;20205;-80
2023/02/25 11:44:20;;;;;;;1.92;0.90;;;6.80;99.90;;;;;;5012990;28;20182;-80
2023/02/25 11:46:58;;;;;;;2.42;1.15;;;7.00;99.90;;;;;;5030526;28;20623;-79
2023/02/25 11:49:41;;;;;;;2.22;1.00;;;7.20;99.90;;;;;;5031232;28;20679;-80
2023/02/25 11:52:33;;;;;;;1.50;0.70;;;7.50;99.90;;;;;;5013103;28;20209;-80
2023/02/25 11:54:58;;;;;;;2.00;0.80;;;7.80;99.90;;;;;;5033657;28;20197;-80
2023/02/25 11:57:32;;;;;;;3.50;0.70;;;8.10;99.90;;;;;;5027321;28;20169;-80
2023/02/25 12:00:20;;;;;;;1.65;0.88;;;8.50;99.90;;;;;;5009595;28;20265;-81
2023/02/25 12:02:57;;;;;;;2.03;0.95;;;8.90;99.90;;;;;;5030470;28;20664;-80
2023/02/25 12:05:52;;;;;;;2.35;0.70;;;9.40;99.90;;;;;;5012356;28;20267;-81
2023/02/25 12:08:43;;;;;;;1.80;0.70;;;9.80;99.90;;;;;;5007942;28;20198;-82
2023/02/25 12:11:19;;;;;;;4.63;0.70;;;10.00;99.90;;;;;;5003705;28;20377;-83
2023/02/25 12:14:18;;;;;;;1.70;0.70;;;10.40;99.90;;;;;;5030959;28;20185;-81
2023/02/25 12:17:19;;;;;;;2.23;0.70;;;10.60;99.90;;;;;;5004245;28;20205;-82
2023/02/25 12:20:03;;;;;;;4.63;0.80;;;10.80;99.90;;;;;;5015417;28;20678;-81
2023/02/25 12:23:05;;;;;;;2.63;0.70;;;11.00;99.90;;;;;;5010197;28;20620;-83
2023/02/25 12:26:05;;;;;;;3.30;0.80;;;11.10;99.90;;;;;;5013640;28;20673;-82
2023/02/25 12:28:31;;;;;;;2.90;1.20;;;11.40;99.90;;;;;;4989014;28;20680;-82
2023/02/25 12:31:08;;;;;;;1.90;1.00;;;11.60;99.90;;;;;;5033734;28;20600;-82
2023/02/25 12:34:02;;;;;;;2.10;0.93;;;11.50;99.90;;;;;;5030510;28;20201;-82
2023/02/25 12:36:49;;;;;;;4.03;1.20;;;11.50;99.90;;;;;;5013404;28;20592;-83
2023/02/25 12:39:38;;;;;;;6.57;1.00;;;11.40;99.90;;;;;;5013275;28;20576;-83
2023/02/25 12:42:42;;;;;;;4.10;1.00;;;11.30;99.90;;;;;;4986911;28;20572;-82
2023/02/25 12:45:42;;;;;;;3.17;0.80;;;11.10;99.90;;;;;;5012770;28;20193;-82
2023/02/25 12:48:18;;;;;;;4.88;1.35;;;10.90;99.90;;;;;;5030679;28;20169;-81
2023/02/25 12:50:53;;;;;;;2.03;0.90;;;10.80;99.90;;;;;;5014785;28;20181;-81
2023/02/25 12:53:33;;;;;;;5.53;1.23;;;10.60;99.90;;;;;;5034034;28;20216;-82
2023/02/25 12:56:23;;;;;;;5.63;1.63;;;10.50;99.90;;;;;;5017462;28;20791;-81
2023/02/25 12:59:13;;;;;;;3.65;1.50;;;10.30;99.90;;;;;;5017957;28;20176;-82
2023/02/25 13:02:00;;;;;;;2.92;1.10;;;10.30;99.90;;;;;;5035202;28;20174;-81
2023/02/25 13:04:33;;;;;;;3.75;1.10;;;10.20;99.90;;;;;;5035661;28;20182;-82
2023/02/25 13:06:58;;;;;;;3.42;1.40;;;10.30;99.90;;;;;;5021000;28;20200;-81
2023/02/25 13:09:36;;;;;;;3.77;1.10;;;10.40;99.90;;;;;;5035277;28;20264;-82
2023/02/25 13:12:29;;;;;;;5.43;1.58;;;10.30;99.90;;;;;;5017074;28;20197;-81
2023/02/25 13:15:00;;;;;;;3.42;1.00;;;10.20;99.90;;;;;;5033898;28;20609;-82